createdAt,value
2019-05-07T00:00:04.999Z,99.90
2019-05-07T00:02:52.309Z,99.90
2019-05-07T00:05:37.438Z,99.90
2019-05-07T00:08:22.903Z,99.90
2019-05-07T00:11:08.594Z,99.90
2019-05-07T00:13:53.522Z,99.90
2019-05-07T00:16:39.247Z,99.90
2019-05-07T00:19:24.136Z,99.90
2019-05-07T00:22:09.337Z,99.90
2019-05-07T00:24:54.718Z,99.90
2019-05-07T00:27:40.118Z,99.90
2019-05-07T00:30:25.903Z,99.90
2019-05-07T00:33:13.199Z,99.90
2019-05-07T00:36:07.250Z,99.90
2019-05-07T00:38:58.168Z,99.90
2019-05-07T00:41:52.290Z,99.90
2019-05-07T00:44:55.326Z,99.90
2019-05-07T00:47:42.594Z,99.90
2019-05-07T00:50:33.146Z,99.90
2019-05-07T00:53:18.610Z,99.90
2019-05-07T00:56:03.977Z,99.90
2019-05-07T00:58:49.226Z,99.90
2019-05-07T01:01:35.233Z,99.90
2019-05-07T01:04:22.943Z,99.90
2019-05-07T01:07:07.953Z,99.90
2019-05-07T01:09:52.702Z,99.90
2019-05-07T01:12:37.510Z,99.90
2019-05-07T01:15:30.746Z,99.90
2019-05-07T01:18:09.491Z,99.90
2019-05-07T01:20:55.390Z,99.90
2019-05-07T01:23:42.713Z,99.90
2019-05-07T01:26:27.797Z,99.90
2019-05-07T01:29:13.546Z,99.90
2019-05-07T01:32:16.286Z,99.90
2019-05-07T01:35:07.009Z,99.90
2019-05-07T01:37:52.410Z,99.90
2019-05-07T01:40:38.158Z,99.90
2019-05-07T01:43:23.414Z,99.90
2019-05-07T01:46:09.005Z,99.90
2019-05-07T01:48:57.383Z,99.90
2019-05-07T01:51:42.273Z,99.90
2019-05-07T01:54:28.166Z,99.90
2019-05-07T01:57:13.361Z,99.90
2019-05-07T01:59:58.931Z,99.90
2019-05-07T02:02:52.086Z,99.90
2019-05-07T02:05:48.197Z,99.90
2019-05-07T02:08:42.439Z,99.90
2019-05-07T02:11:32.815Z,99.90
2019-05-07T02:14:17.826Z,99.90
2019-05-07T02:17:03.205Z,99.90
2019-05-07T02:19:48.662Z,99.90
2019-05-07T02:22:33.606Z,99.90
2019-05-07T02:25:18.390Z,99.90
2019-05-07T02:28:03.645Z,99.90
2019-05-07T02:30:49.326Z,99.90
2019-05-07T02:33:35.273Z,99.90
2019-05-07T02:36:23.672Z,99.90
2019-05-07T02:39:17.274Z,99.90
2019-05-07T02:42:03.721Z,99.90
2019-05-07T02:45:24.236Z,99.90
2019-05-07T02:48:12.773Z,99.90
2019-05-07T02:51:08.515Z,99.90
2019-05-07T02:54:03.640Z,99.90
2019-05-07T02:56:48.479Z,99.90
2019-05-07T02:59:33.888Z,99.90
2019-05-07T03:02:19.535Z,99.90
2019-05-07T03:05:05.444Z,99.90
2019-05-07T03:07:53.504Z,99.90
2019-05-07T03:10:38.531Z,99.90
2019-05-07T03:13:24.216Z,99.90
2019-05-07T03:16:09.171Z,99.90
2019-05-07T03:18:54.684Z,99.90
2019-05-07T03:21:53.724Z,99.90
2019-05-07T03:24:53.080Z,99.90
2019-05-07T03:27:38.559Z,99.90
2019-05-07T03:30:46.359Z,99.90
2019-05-07T03:33:48.505Z,99.90
2019-05-07T03:36:47.692Z,99.90
2019-05-07T03:39:29.500Z,99.90
2019-05-07T03:42:14.583Z,99.90
2019-05-07T03:45:08.592Z,99.90
2019-05-07T03:48:04.046Z,99.90
2019-05-07T03:50:48.905Z,99.90
2019-05-07T03:53:34.367Z,99.90
2019-05-07T03:56:19.491Z,99.90
2019-05-07T03:59:04.583Z,99.90
2019-05-07T04:01:53.590Z,99.90
2019-05-07T04:04:37.441Z,99.90
2019-05-07T04:07:23.412Z,99.90
2019-05-07T04:10:10.112Z,99.90
2019-05-07T04:12:56.367Z,99.90
2019-05-07T04:15:44.110Z,99.90
2019-05-07T04:18:32.643Z,99.90
2019-05-07T04:21:16.455Z,99.90
2019-05-07T04:24:23.492Z,99.90
2019-05-07T04:27:16.791Z,99.90
2019-05-07T04:30:03.688Z,99.90
2019-05-07T04:32:53.025Z,99.90
2019-05-07T04:35:45.555Z,99.90
2019-05-07T04:38:33.150Z,99.90
2019-05-07T04:41:17.869Z,99.90
2019-05-07T04:44:03.871Z,99.90
2019-05-07T04:46:53.087Z,99.90
2019-05-07T04:49:37.139Z,99.90
2019-05-07T04:52:29.164Z,99.90
2019-05-07T04:55:14.737Z,99.90
2019-05-07T04:58:02.733Z,99.90
2019-05-07T05:00:46.705Z,99.90
2019-05-07T05:03:34.735Z,99.90
2019-05-07T05:06:19.102Z,99.90
2019-05-07T05:09:05.300Z,99.90
2019-05-07T05:11:52.983Z,99.90
2019-05-07T05:14:37.978Z,99.90
2019-05-07T05:17:23.846Z,99.90
2019-05-07T05:20:09.424Z,99.90
2019-05-07T05:23:17.921Z,99.90
2019-05-07T05:26:02.899Z,99.90
2019-05-07T05:28:48.458Z,99.90
2019-05-07T05:31:33.530Z,99.90
2019-05-07T05:34:19.097Z,99.90
2019-05-07T05:37:04.093Z,99.90
2019-05-07T05:40:02.520Z,99.90
2019-05-07T05:42:42.911Z,99.90
2019-05-07T05:45:34.927Z,99.90
2019-05-07T05:48:22.220Z,99.90
2019-05-07T05:51:25.569Z,99.90
2019-05-07T05:54:36.358Z,99.90
2019-05-07T05:57:32.294Z,99.90
2019-05-07T06:00:32.862Z,99.90
2019-05-07T06:03:42.917Z,99.90
2019-05-07T06:06:35.082Z,99.90
2019-05-07T06:09:32.832Z,99.90
2019-05-07T06:12:35.057Z,99.90
2019-05-07T06:15:45.494Z,99.90
2019-05-07T06:18:43.792Z,99.90
2019-05-07T06:21:47.782Z,99.90
2019-05-07T06:24:42.656Z,99.90
2019-05-07T06:27:28.291Z,99.90
2019-05-07T06:30:14.593Z,99.90
2019-05-07T06:32:59.950Z,99.90
2019-05-07T06:35:45.464Z,99.90
2019-05-07T06:38:34.726Z,99.90
2019-05-07T06:41:41.758Z,99.90
2019-05-07T06:44:27.267Z,99.90
2019-05-07T06:47:13.063Z,99.90
2019-05-07T06:49:58.714Z,99.90
2019-05-07T06:52:44.130Z,99.90
2019-05-07T06:55:29.670Z,99.90
2019-05-07T06:58:14.794Z,99.80
2019-05-07T07:01:25.690Z,99.40
2019-05-07T07:04:36.754Z,94.40
2019-05-07T07:07:37.244Z,92.90
2019-05-07T07:10:47.009Z,92.90
2019-05-07T07:13:32.870Z,90.60
2019-05-07T07:16:18.785Z,82.00
2019-05-07T07:19:04.637Z,84.50
2019-05-07T07:21:52.550Z,83.10
2019-05-07T07:24:37.226Z,85.70
2019-05-07T07:27:22.861Z,85.40
2019-05-07T07:30:27.938Z,82.80
2019-05-07T07:33:13.849Z,82.80
2019-05-07T07:35:59.070Z,83.90
2019-05-07T07:38:44.170Z,78.10
2019-05-07T07:41:49.159Z,78.20
2019-05-07T07:44:34.349Z,73.50
2019-05-07T07:47:22.240Z,71.20
2019-05-07T07:50:07.318Z,64.40
2019-05-07T07:52:53.101Z,66.60
2019-05-07T07:55:44.182Z,67.00
2019-05-07T07:58:36.525Z,65.80
2019-05-07T08:01:39.394Z,64.90
2019-05-07T08:04:24.366Z,64.90
2019-05-07T08:07:09.194Z,65.50
2019-05-07T08:09:54.030Z,65.50
2019-05-07T08:12:42.057Z,68.80
2019-05-07T08:15:27.069Z,66.20
2019-05-07T08:18:12.686Z,66.50
2019-05-07T08:20:57.990Z,63.70
2019-05-07T08:23:42.802Z,65.70
2019-05-07T08:26:28.350Z,65.20
2019-05-07T08:29:13.389Z,63.90
2019-05-07T08:32:17.102Z,60.20
2019-05-07T08:35:17.502Z,60.00
2019-05-07T08:38:02.682Z,59.40
2019-05-07T08:40:48.958Z,58.40
2019-05-07T08:43:34.961Z,58.80
2019-05-07T08:46:42.193Z,58.00
2019-05-07T08:49:36.803Z,61.20
2019-05-07T08:52:14.713Z,61.30
2019-05-07T08:55:02.020Z,63.30
2019-05-07T08:57:46.889Z,65.10
2019-05-07T09:00:32.602Z,64.90
2019-05-07T09:03:37.590Z,64.20
2019-05-07T09:06:34.473Z,66.10
2019-05-07T09:09:22.038Z,67.10
2019-05-07T09:12:06.646Z,65.90
2019-05-07T09:14:52.918Z,64.50
2019-05-07T09:17:38.354Z,65.00
2019-05-07T09:20:23.525Z,60.60
2019-05-07T09:23:08.657Z,59.60
2019-05-07T09:25:54.265Z,62.70
2019-05-07T09:28:58.866Z,63.30
2019-05-07T09:32:03.029Z,68.00
2019-05-07T09:34:49.049Z,68.60
2019-05-07T09:37:34.537Z,68.50
2019-05-07T09:40:21.632Z,69.80
2019-05-07T09:43:07.019Z,71.20
2019-05-07T09:45:52.340Z,65.00
2019-05-07T09:48:37.266Z,63.90
2019-05-07T09:51:22.662Z,62.00
2019-05-07T09:54:08.402Z,63.20
2019-05-07T09:56:53.430Z,63.00
2019-05-07T09:59:39.246Z,60.90
2019-05-07T10:02:24.222Z,61.10
2019-05-07T10:05:09.113Z,62.10
2019-05-07T10:07:53.858Z,64.60
2019-05-07T10:10:39.170Z,65.80
2019-05-07T10:13:42.030Z,67.40
2019-05-07T10:16:35.997Z,68.00
2019-05-07T10:19:22.246Z,68.40
2019-05-07T10:22:07.483Z,64.80
2019-05-07T10:24:52.542Z,62.30
2019-05-07T10:27:41.412Z,59.90
2019-05-07T10:30:26.266Z,59.40
2019-05-07T10:33:12.373Z,56.50
2019-05-07T10:35:58.034Z,55.90
2019-05-07T10:38:43.718Z,57.90
2019-05-07T10:41:28.972Z,57.50
2019-05-07T10:44:16.190Z,58.90
2019-05-07T10:47:19.709Z,60.60
2019-05-07T10:50:16.484Z,58.50
2019-05-07T10:53:02.197Z,55.20
2019-05-07T10:55:47.446Z,53.00
2019-05-07T10:58:32.627Z,53.60
2019-05-07T11:01:22.418Z,49.10
2019-05-07T11:04:07.670Z,51.10
2019-05-07T11:06:52.770Z,47.70
2019-05-07T11:09:37.726Z,46.10
2019-05-07T11:12:22.941Z,45.80
2019-05-07T11:15:08.799Z,45.20
2019-05-07T11:18:08.922Z,52.30
2019-05-07T11:20:54.023Z,51.60
2019-05-07T11:23:39.301Z,51.60
2019-05-07T11:26:24.863Z,53.40
2019-05-07T11:29:10.334Z,55.10
2019-05-07T11:31:55.877Z,56.00
2019-05-07T11:34:43.740Z,57.80
2019-05-07T11:37:28.923Z,59.90
2019-05-07T11:40:13.869Z,63.20
2019-05-07T11:43:08.205Z,64.20
2019-05-07T11:46:13.103Z,61.40
2019-05-07T11:49:05.077Z,61.00
2019-05-07T11:52:09.670Z,61.90
2019-05-07T11:54:55.257Z,59.40
2019-05-07T11:57:44.211Z,59.00
2019-05-07T12:00:32.499Z,60.00
2019-05-07T12:03:18.093Z,62.10
2019-05-07T12:06:03.831Z,63.40
2019-05-07T12:08:52.012Z,62.40
2019-05-07T12:11:36.706Z,62.70
2019-05-07T12:14:30.980Z,60.70
2019-05-07T12:17:09.173Z,63.50
2019-05-07T12:19:54.340Z,62.20
2019-05-07T12:22:45.563Z,60.70
2019-05-07T12:25:32.045Z,61.10
2019-05-07T12:28:18.042Z,63.00
2019-05-07T12:31:12.498Z,60.20
2019-05-07T12:34:04.170Z,59.50
2019-05-07T12:36:48.821Z,55.20
2019-05-07T12:39:34.102Z,55.80
2019-05-07T12:42:18.994Z,55.50
2019-05-07T12:45:04.081Z,55.60
2019-05-07T12:47:49.365Z,56.00
2019-05-07T12:50:34.374Z,55.90
2019-05-07T12:53:39.027Z,56.00
2019-05-07T12:56:24.009Z,58.50
2019-05-07T12:59:08.710Z,61.70
2019-05-07T13:02:15.957Z,62.80
2019-05-07T13:04:52.024Z,64.10
2019-05-07T13:07:51.978Z,63.60
2019-05-07T13:10:37.192Z,63.00
2019-05-07T13:13:22.589Z,63.60
2019-05-07T13:16:07.607Z,65.60
2019-05-07T13:18:52.650Z,64.80
2019-05-07T13:21:49.058Z,61.20
2019-05-07T13:24:25.437Z,60.00
2019-05-07T13:27:10.806Z,58.50
2019-05-07T13:29:55.976Z,53.50
2019-05-07T13:32:41.888Z,55.40
2019-05-07T13:35:28.558Z,54.00
2019-05-07T13:38:32.580Z,57.70
2019-05-07T13:41:37.670Z,58.20
2019-05-07T13:44:43.998Z,60.00
2019-05-07T13:47:34.360Z,62.00
2019-05-07T13:50:19.378Z,63.60
2019-05-07T13:53:04.434Z,65.50
2019-05-07T13:55:49.509Z,67.50
2019-05-07T13:58:34.670Z,64.70
2019-05-07T14:01:48.486Z,61.20
2019-05-07T14:04:33.650Z,63.40
2019-05-07T14:07:19.126Z,58.90
2019-05-07T14:10:04.157Z,59.50
2019-05-07T14:12:49.256Z,57.10
2019-05-07T14:15:35.052Z,54.60
2019-05-07T14:18:24.096Z,54.70
2019-05-07T14:21:07.517Z,52.50
2019-05-07T14:23:53.197Z,53.90
2019-05-07T14:26:39.181Z,55.60
2019-05-07T14:29:25.168Z,59.50
2019-05-07T14:32:25.798Z,61.60
2019-05-07T14:35:22.913Z,63.80
2019-05-07T14:38:22.692Z,61.40
2019-05-07T14:41:08.010Z,57.70
2019-05-07T14:44:07.431Z,60.00
2019-05-07T14:46:54.416Z,65.30
2019-05-07T14:49:41.534Z,68.60
2019-05-07T14:52:32.700Z,68.80
2019-05-07T14:55:13.986Z,68.20
2019-05-07T14:57:58.885Z,67.40
2019-05-07T15:00:44.422Z,66.40
2019-05-07T15:03:31.786Z,69.80
2019-05-07T15:06:17.097Z,71.60
2019-05-07T15:09:02.903Z,72.70
2019-05-07T15:11:48.258Z,73.20
2019-05-07T15:14:33.839Z,74.10
2019-05-07T15:17:32.583Z,72.20
2019-05-07T15:20:18.703Z,73.40
2019-05-07T15:23:08.370Z,73.20
2019-05-07T15:25:53.369Z,72.40
2019-05-07T15:28:41.748Z,71.00
2019-05-07T15:31:55.097Z,72.30
2019-05-07T15:34:41.971Z,71.20
2019-05-07T15:37:27.017Z,71.90
2019-05-07T15:40:14.372Z,71.00
2019-05-07T15:43:02.024Z,69.20
2019-05-07T15:45:47.149Z,69.90
2019-05-07T15:48:32.766Z,63.90
2019-05-07T15:51:18.226Z,64.40
2019-05-07T15:54:03.618Z,64.40
2019-05-07T15:56:48.626Z,67.00
2019-05-07T15:59:33.909Z,66.60
2019-05-07T16:02:29.292Z,67.00
2019-05-07T16:05:14.586Z,69.80
2019-05-07T16:08:01.652Z,68.60
2019-05-07T16:10:46.814Z,70.80
2019-05-07T16:13:34.553Z,69.30
2019-05-07T16:16:21.537Z,69.90
2019-05-07T16:19:12.438Z,72.00
2019-05-07T16:22:03.755Z,73.60
2019-05-07T16:24:49.169Z,73.50
2019-05-07T16:27:42.178Z,74.70
2019-05-07T16:30:27.585Z,74.10
2019-05-07T16:33:13.165Z,73.10
2019-05-07T16:35:58.743Z,73.90
2019-05-07T16:38:44.110Z,73.60
2019-05-07T16:41:29.198Z,74.90
2019-05-07T16:44:14.509Z,75.00
2019-05-07T16:46:59.501Z,72.70
2019-05-07T16:49:45.389Z,73.00
2019-05-07T16:52:32.488Z,74.20
2019-05-07T16:55:17.820Z,72.50
2019-05-07T16:58:08.287Z,72.80
2019-05-07T17:00:56.515Z,74.50
2019-05-07T17:03:48.302Z,74.10
2019-05-07T17:06:33.508Z,74.60
2019-05-07T17:09:18.386Z,74.30
2019-05-07T17:12:06.346Z,73.40
2019-05-07T17:14:51.824Z,74.70
2019-05-07T17:17:37.421Z,74.60
2019-05-07T17:20:22.690Z,74.10
2019-05-07T17:23:07.688Z,74.50
2019-05-07T17:25:52.821Z,75.00
2019-05-07T17:28:38.057Z,75.10
2019-05-07T17:31:23.970Z,75.30
2019-05-07T17:34:11.643Z,75.30
2019-05-07T17:36:56.353Z,74.80
2019-05-07T17:39:42.592Z,75.30
2019-05-07T17:42:28.217Z,74.80
2019-05-07T17:45:13.794Z,76.40
2019-05-07T17:47:59.369Z,77.10
2019-05-07T17:50:54.566Z,76.20
2019-05-07T17:53:39.664Z,75.40
2019-05-07T17:56:24.743Z,75.90
2019-05-07T17:59:09.601Z,75.20
2019-05-07T18:02:26.209Z,74.80
2019-05-07T18:05:11.931Z,76.50
2019-05-07T18:07:57.046Z,76.40
2019-05-07T18:10:42.408Z,76.40
2019-05-07T18:13:27.754Z,76.80
2019-05-07T18:16:24.393Z,77.00
2019-05-07T18:19:09.622Z,77.10
2019-05-07T18:21:54.993Z,77.40
2019-05-07T18:24:41.863Z,78.00
2019-05-07T18:27:27.566Z,78.20
2019-05-07T18:30:12.906Z,78.50
2019-05-07T18:33:19.098Z,79.30
2019-05-07T18:36:03.950Z,80.10
2019-05-07T18:38:49.226Z,80.70
2019-05-07T18:41:34.237Z,81.10
2019-05-07T18:44:19.277Z,82.90
2019-05-07T18:47:04.379Z,83.40
2019-05-07T18:49:51.728Z,83.70
2019-05-07T18:52:37.205Z,83.10
2019-05-07T18:55:22.795Z,83.20
2019-05-07T18:58:08.537Z,83.30
2019-05-07T19:00:56.966Z,84.00
2019-05-07T19:03:42.075Z,84.80
2019-05-07T19:06:27.641Z,84.50
2019-05-07T19:09:12.669Z,85.00
2019-05-07T19:11:57.590Z,85.20
2019-05-07T19:14:43.245Z,85.20
2019-05-07T19:17:28.482Z,84.90
2019-05-07T19:20:13.830Z,84.30
2019-05-07T19:22:59.159Z,83.80
2019-05-07T19:25:45.349Z,83.30
2019-05-07T19:28:32.747Z,83.40
2019-05-07T19:31:17.730Z,82.60
2019-05-07T19:34:03.125Z,82.80
2019-05-07T19:36:48.540Z,82.90
2019-05-07T19:39:34.553Z,83.60
2019-05-07T19:42:19.985Z,83.10
2019-05-07T19:45:05.062Z,83.30
2019-05-07T19:47:52.313Z,83.70
2019-05-07T19:50:37.882Z,83.70
2019-05-07T19:53:23.637Z,83.50
2019-05-07T19:56:15.889Z,82.90
2019-05-07T19:59:01.366Z,82.60
2019-05-07T20:01:52.465Z,82.60
2019-05-07T20:04:37.407Z,82.60
2019-05-07T20:07:23.078Z,82.30
2019-05-07T20:10:08.982Z,82.30
2019-05-07T20:12:54.365Z,82.30
2019-05-07T20:15:42.579Z,82.20
2019-05-07T20:18:27.470Z,82.40
2019-05-07T20:21:13.646Z,82.50
2019-05-07T20:23:58.830Z,82.30
2019-05-07T20:26:44.412Z,82.40
2019-05-07T20:29:32.324Z,82.60
2019-05-07T20:32:17.382Z,83.50
2019-05-07T20:35:02.836Z,82.90
2019-05-07T20:37:48.330Z,83.00
2019-05-07T20:40:33.906Z,83.20
2019-05-07T20:43:19.387Z,83.60
2019-05-07T20:46:04.234Z,83.80
2019-05-07T20:48:49.164Z,83.70
2019-05-07T20:51:33.958Z,83.90
2019-05-07T20:54:29.152Z,83.80
2019-05-07T20:57:26.922Z,83.50
2019-05-07T21:00:18.137Z,83.30
2019-05-07T21:03:23.370Z,83.10
2019-05-07T21:06:08.097Z,83.40
2019-05-07T21:08:53.673Z,82.90
2019-05-07T21:11:39.141Z,82.70
2019-05-07T21:14:24.337Z,82.80
2019-05-07T21:17:11.940Z,82.50
2019-05-07T21:19:57.710Z,82.60
2019-05-07T21:22:42.873Z,82.60
2019-05-07T21:25:41.512Z,82.50
2019-05-07T21:28:15.260Z,82.00
2019-05-07T21:31:02.806Z,82.10
2019-05-07T21:33:48.150Z,82.10
2019-05-07T21:36:33.361Z,82.20
2019-05-07T21:39:19.411Z,82.20
2019-05-07T21:42:04.877Z,82.20
2019-05-07T21:44:52.503Z,82.00
2019-05-07T21:47:37.837Z,82.20
2019-05-07T21:50:22.837Z,82.20
2019-05-07T21:53:15.477Z,82.90
2019-05-07T21:56:17.603Z,82.90
2019-05-07T21:59:06.681Z,83.00
2019-05-07T22:01:55.741Z,83.50
2019-05-07T22:04:42.143Z,83.60
2019-05-07T22:07:27.809Z,83.70
2019-05-07T22:10:12.853Z,84.10
2019-05-07T22:12:58.220Z,84.20
2019-05-07T22:15:43.514Z,84.50
2019-05-07T22:18:28.678Z,84.60
2019-05-07T22:21:14.502Z,85.60
2019-05-07T22:23:59.730Z,85.60
2019-05-07T22:26:44.786Z,86.20
2019-05-07T22:29:29.959Z,87.10
2019-05-07T22:32:24.644Z,87.60
2019-05-07T22:35:14.494Z,88.00
2019-05-07T22:37:59.961Z,88.60
2019-05-07T22:40:45.570Z,89.30
2019-05-07T22:43:31.850Z,89.80
2019-05-07T22:46:17.118Z,90.10
2019-05-07T22:49:03.133Z,90.40
2019-05-07T22:51:48.169Z,90.70
2019-05-07T22:54:33.229Z,91.00
2019-05-07T22:57:42.117Z,91.40
2019-05-07T23:00:33.791Z,91.60
2019-05-07T23:03:18.909Z,91.90
2019-05-07T23:06:06.094Z,91.90
2019-05-07T23:08:52.919Z,92.20
2019-05-07T23:11:38.830Z,92.30
2019-05-07T23:14:24.202Z,92.60
2019-05-07T23:17:09.738Z,92.90
2019-05-07T23:19:55.250Z,93.10
2019-05-07T23:22:42.759Z,93.30
2019-05-07T23:25:28.858Z,93.70
2019-05-07T23:28:13.857Z,93.70
2019-05-07T23:30:58.679Z,93.80
2019-05-07T23:33:43.562Z,94.10
2019-05-07T23:36:28.492Z,94.00
2019-05-07T23:39:15.897Z,93.90
2019-05-07T23:42:07.949Z,94.10
2019-05-07T23:44:52.785Z,94.30
2019-05-07T23:47:38.233Z,94.20
2019-05-07T23:50:23.619Z,94.20
2019-05-07T23:53:08.898Z,94.30
2019-05-07T23:55:54.191Z,94.50
2019-05-07T23:58:41.843Z,94.60
